createdAt,value
2018-05-11T00:01:23.751Z,99539.79
2018-05-11T00:03:00.731Z,99571.98
2018-05-11T00:04:37.389Z,99597.61
2018-05-11T00:06:14.117Z,99665.11
2018-05-11T00:07:51.849Z,99679.66
2018-05-11T00:09:28.346Z,99694.65
2018-05-11T00:11:05.687Z,99709.73
2018-05-11T00:12:42.544Z,99715.47
2018-05-11T00:14:18.904Z,99714.20
2018-05-11T00:15:55.541Z,99682.78
2018-05-11T00:17:31.827Z,99648.39
2018-05-11T00:19:08.175Z,99693.88
2018-05-11T00:20:44.461Z,99685.89
2018-05-11T00:22:21.601Z,99715.97
2018-05-11T00:23:59.092Z,99732.70
2018-05-11T00:25:35.408Z,99734.08
2018-05-11T00:27:12.554Z,99731.90
2018-05-11T00:28:49.686Z,99723.98
2018-05-11T00:30:26.757Z,99655.52
2018-05-11T00:32:03.980Z,99651.56
2018-05-11T00:33:40.341Z,99626.02
2018-05-11T00:35:16.626Z,99650.70
2018-05-11T00:36:53.765Z,99658.23
2018-05-11T00:38:30.087Z,99678.05
2018-05-11T00:40:06.422Z,99685.62
2018-05-11T00:41:42.726Z,99685.59
2018-05-11T00:43:19.478Z,99660.42
2018-05-11T00:44:55.756Z,99620.26
2018-05-11T00:46:32.262Z,99622.47
2018-05-11T00:48:08.504Z,99603.53
2018-05-11T00:49:46.207Z,99598.27
2018-05-11T00:51:22.430Z,99604.41
2018-05-11T00:52:59.817Z,99586.81
2018-05-11T00:54:36.098Z,99633.56
2018-05-11T00:56:12.725Z,99663.56
2018-05-11T00:57:49.052Z,99639.27
2018-05-11T00:59:25.460Z,99671.98
2018-05-11T01:01:01.877Z,99672.34
2018-05-11T01:02:38.477Z,99689.64
2018-05-11T01:04:15.804Z,99634.81
2018-05-11T01:05:52.042Z,99633.56
2018-05-11T01:07:29.213Z,99631.38
2018-05-11T01:09:07.023Z,99615.47
2018-05-11T01:10:43.333Z,99615.91
2018-05-11T01:12:19.597Z,99625.25
2018-05-11T01:13:55.840Z,99604.51
2018-05-11T01:15:32.873Z,99637.18
2018-05-11T01:17:09.083Z,99635.84
2018-05-11T01:18:45.383Z,99615.53
2018-05-11T01:20:21.750Z,99606.75
2018-05-11T01:21:58.466Z,99594.85
2018-05-11T01:23:34.704Z,99585.10
2018-05-11T01:25:11.038Z,99586.41
2018-05-11T01:26:47.333Z,99538.00
2018-05-11T01:28:24.936Z,99480.13
2018-05-11T01:30:01.222Z,99455.56
2018-05-11T01:31:40.128Z,99421.08
2018-05-11T01:33:17.357Z,99405.25
2018-05-11T01:34:53.974Z,99418.91
2018-05-11T01:36:30.377Z,99411.88
2018-05-11T01:38:10.342Z,99371.31
2018-05-11T01:39:47.662Z,99348.92
2018-05-11T01:41:24.453Z,99350.63
2018-05-11T01:43:01.814Z,99354.65
2018-05-11T01:44:38.370Z,99364.72
2018-05-11T01:46:14.965Z,99384.16
2018-05-11T01:47:52.448Z,99396.98
2018-05-11T01:49:29.563Z,99431.85
2018-05-11T01:51:05.914Z,99448.16
2018-05-11T01:52:42.159Z,99464.86
2018-05-11T01:54:19.668Z,99477.59
2018-05-11T01:55:56.059Z,99480.30
2018-05-11T01:57:32.509Z,99470.59
2018-05-11T01:59:08.822Z,99497.51
2018-05-11T02:00:45.703Z,99534.08
2018-05-11T02:03:57.970Z,99495.80
2018-05-11T02:05:34.277Z,99490.44
2018-05-11T02:07:10.826Z,99502.39
2018-05-11T02:08:48.239Z,99500.22
2018-05-11T02:10:24.572Z,99481.70
2018-05-11T02:12:00.947Z,99457.02
2018-05-11T02:13:37.951Z,99275.97
2018-05-11T02:15:15.997Z,99300.25
2018-05-11T02:16:53.090Z,99391.28
2018-05-11T02:18:29.451Z,99451.30
2018-05-11T02:20:06.201Z,99502.83
2018-05-11T02:21:42.835Z,99440.66
2018-05-11T02:23:19.977Z,99312.09
2018-05-11T02:24:56.947Z,99236.31
2018-05-11T02:26:34.453Z,99168.02
2018-05-11T02:28:11.734Z,99120.50
2018-05-11T02:29:48.755Z,99112.21
2018-05-11T02:31:25.422Z,99129.78
2018-05-11T02:33:01.703Z,99150.51
2018-05-11T02:34:37.999Z,99165.01
2018-05-11T02:36:14.480Z,99163.14
2018-05-11T02:37:50.790Z,99164.11
2018-05-11T02:39:28.341Z,99175.97
2018-05-11T02:41:04.685Z,99191.84
2018-05-11T02:44:22.899Z,99177.31
2018-05-11T02:45:59.710Z,99189.20
2018-05-11T02:47:36.968Z,99174.27
2018-05-11T02:49:13.281Z,99151.84
2018-05-11T02:50:49.629Z,99173.40
2018-05-11T02:52:26.421Z,99152.75
2018-05-11T02:54:02.825Z,99166.34
2018-05-11T02:55:39.898Z,99153.14
2018-05-11T02:57:16.113Z,99166.38
2018-05-11T02:58:52.757Z,99174.70
2018-05-11T03:00:29.488Z,99183.96
2018-05-11T03:02:05.765Z,99190.95
2018-05-11T03:03:42.910Z,99191.92
2018-05-11T03:05:19.657Z,99218.89
2018-05-11T03:06:56.742Z,99196.73
2018-05-11T03:08:33.391Z,99189.31
2018-05-11T03:10:09.881Z,99163.34
2018-05-11T03:11:46.782Z,99116.76
2018-05-11T03:13:23.014Z,99119.40
2018-05-11T03:14:59.306Z,99161.17
2018-05-11T03:16:36.593Z,99173.43
2018-05-11T03:18:12.927Z,99165.98
2018-05-11T03:19:49.285Z,99175.23
2018-05-11T03:21:27.252Z,99155.05
2018-05-11T03:23:03.612Z,99181.82
2018-05-11T03:24:40.404Z,99185.40
2018-05-11T03:26:17.739Z,99208.77
2018-05-11T03:27:54.910Z,99240.89
2018-05-11T03:29:32.072Z,99213.21
2018-05-11T03:31:09.041Z,99214.95
2018-05-11T03:32:45.649Z,99161.60
2018-05-11T03:34:22.805Z,99109.28
2018-05-11T03:35:59.650Z,99049.48
2018-05-11T03:37:36.458Z,99128.75
2018-05-11T03:39:12.749Z,99151.58
2018-05-11T03:40:50.535Z,99205.29
2018-05-11T03:42:26.819Z,99206.59
2018-05-11T03:44:04.319Z,99169.16
2018-05-11T03:45:40.796Z,99144.96
2018-05-11T03:48:58.374Z,99071.06
2018-05-11T03:50:35.723Z,99106.20
2018-05-11T03:52:12.021Z,99116.89
2018-05-11T03:53:49.017Z,99152.08
2018-05-11T03:55:25.260Z,99144.12
2018-05-11T03:57:02.982Z,99096.18
2018-05-11T03:58:39.262Z,99103.66
2018-05-11T04:00:17.499Z,99075.50
2018-05-11T04:06:17.623Z,99062.38
2018-05-11T04:08:58.609Z,99084.42
2018-05-11T04:10:35.307Z,99069.03
2018-05-11T04:12:12.424Z,98958.61
2018-05-11T04:13:48.687Z,98971.42
2018-05-11T04:15:25.132Z,98970.92
2018-05-11T04:17:01.855Z,98942.81
2018-05-11T04:18:38.239Z,98913.85
2018-05-11T04:20:14.805Z,98982.41
2018-05-11T04:21:52.050Z,99089.23
2018-05-11T04:23:28.949Z,99111.25
2018-05-11T04:25:05.428Z,99162.27
2018-05-11T04:26:41.647Z,99164.95
2018-05-11T04:28:17.982Z,99211.20
2018-05-11T04:29:54.824Z,99251.69
2018-05-11T04:31:31.448Z,99374.14
2018-05-11T04:33:07.783Z,99486.11
2018-05-11T04:34:44.919Z,99481.69
2018-05-11T04:36:24.142Z,99494.84
2018-05-11T04:38:02.450Z,99539.89
2018-05-11T04:39:39.774Z,99504.13
2018-05-11T04:41:17.113Z,99485.20
2018-05-11T04:42:53.354Z,99496.72
2018-05-11T04:44:30.558Z,99347.75
2018-05-11T04:46:07.436Z,99434.15
2018-05-11T04:47:43.677Z,99499.83
2018-05-11T04:49:21.654Z,99587.09
2018-05-11T04:51:00.854Z,99744.25
2018-05-11T04:52:38.578Z,99802.17
2018-05-11T04:54:14.897Z,99904.61
2018-05-11T04:55:51.673Z,99973.09
2018-05-11T04:57:29.081Z,100046.55
2018-05-11T04:59:05.417Z,100189.56
2018-05-11T05:00:41.856Z,100273.70
2018-05-11T05:02:18.191Z,100277.70
2018-05-11T05:03:54.532Z,100330.02
2018-05-11T05:05:31.672Z,100349.09
2018-05-11T05:07:08.006Z,100347.77
2018-05-11T05:08:44.994Z,100404.08
2018-05-11T05:10:21.951Z,100455.05
2018-05-11T05:11:59.038Z,100542.47
2018-05-11T05:13:36.277Z,100585.06
2018-05-11T05:15:14.211Z,100588.19
2018-05-11T05:16:51.206Z,100622.44
2018-05-11T05:18:27.546Z,100660.08
2018-05-11T05:20:03.805Z,100713.87
2018-05-11T05:21:40.656Z,100733.02
2018-05-11T05:23:18.745Z,100719.25
2018-05-11T05:24:55.002Z,100763.17
2018-05-11T05:28:10.566Z,100556.77
2018-05-11T05:29:47.003Z,100442.36
2018-05-11T05:31:24.637Z,100412.19
2018-05-11T05:33:01.062Z,100493.22
2018-05-11T05:34:37.930Z,100529.72
2018-05-11T05:36:14.376Z,100507.05
2018-05-11T05:37:51.605Z,100485.73
2018-05-11T05:39:28.351Z,100576.80
2018-05-11T05:41:07.972Z,100475.13
2018-05-11T05:42:44.575Z,100364.33
2018-05-11T05:44:20.914Z,100429.55
2018-05-11T05:45:57.491Z,100389.61
2018-05-11T05:47:33.867Z,100294.29
2018-05-11T05:49:10.161Z,100235.36
2018-05-11T05:50:46.705Z,100277.03
2018-05-11T05:52:23.078Z,100304.55
2018-05-11T05:53:59.405Z,100254.02
2018-05-11T05:55:35.853Z,100402.08
2018-05-11T05:57:13.062Z,100556.83
2018-05-11T05:58:50.961Z,100624.31
2018-05-11T06:00:29.393Z,100699.34
2018-05-11T06:02:05.691Z,100805.92
2018-05-11T06:03:42.074Z,100866.80
2018-05-11T06:05:19.558Z,100923.72
2018-05-11T06:06:55.869Z,100941.92
2018-05-11T06:08:32.177Z,100476.17
2018-05-11T06:10:15.721Z,100037.23
2018-05-11T06:11:52.513Z,99759.23
2018-05-11T06:24:13.303Z,100088.47
2018-05-11T06:25:49.694Z,100261.17
2018-05-11T06:27:26.003Z,100390.07
2018-05-11T06:29:02.915Z,100435.77
2018-05-11T06:30:39.534Z,100347.95
2018-05-11T06:32:16.659Z,99953.62
2018-05-11T06:33:52.946Z,99878.93
2018-05-11T06:35:29.896Z,99839.64
2018-05-11T06:37:06.697Z,99859.50
2018-05-11T06:38:43.876Z,99863.41
2018-05-11T06:40:20.273Z,99828.54
2018-05-11T06:41:57.055Z,99851.11
2018-05-11T06:43:33.330Z,99761.89
2018-05-11T06:45:10.031Z,99759.59
2018-05-11T06:46:47.790Z,99715.48
2018-05-11T06:48:25.383Z,99655.42
2018-05-11T06:50:02.386Z,99648.41
2018-05-11T06:51:38.758Z,99729.59
2018-05-11T06:53:15.040Z,99747.64
2018-05-11T06:54:51.952Z,99741.91
2018-05-11T06:56:29.410Z,99752.97
2018-05-11T06:58:06.107Z,99919.58
2018-05-11T06:59:42.522Z,99914.30
2018-05-11T07:01:19.509Z,99892.16
2018-05-11T07:02:55.792Z,99748.11
2018-05-11T07:04:32.045Z,99997.42
2018-05-11T07:06:08.393Z,100177.42
2018-05-11T07:07:44.780Z,100254.05
2018-05-11T07:09:21.012Z,100178.36
2018-05-11T07:10:57.403Z,100301.94
2018-05-11T07:12:34.491Z,100567.58
2018-05-11T07:14:10.858Z,100315.20
2018-05-11T07:15:48.266Z,100004.52
2018-05-11T07:17:24.760Z,100031.52
2018-05-11T07:19:01.716Z,99897.90
2018-05-11T07:20:37.989Z,99908.56
2018-05-11T07:22:14.318Z,99902.80
2018-05-11T07:23:50.710Z,100081.47
2018-05-11T07:25:27.538Z,100081.88
2018-05-11T07:27:03.953Z,100075.31
2018-05-11T07:28:40.598Z,100155.33
2018-05-11T07:30:17.353Z,100240.39
2018-05-11T07:31:54.145Z,100503.24
2018-05-11T07:33:30.507Z,100876.64
2018-05-11T07:35:06.870Z,101105.77
2018-05-11T07:36:43.200Z,101306.70
2018-05-11T07:38:20.613Z,100909.19
2018-05-11T07:39:57.069Z,100551.64
2018-05-11T07:41:33.448Z,100167.39
2018-05-11T07:43:09.888Z,100170.95
2018-05-11T07:44:46.562Z,100328.16
2018-05-11T07:46:24.120Z,100354.31
2018-05-11T07:48:05.118Z,100621.38
2018-05-11T07:49:41.721Z,100847.37
2018-05-11T07:51:18.550Z,100978.08
2018-05-11T07:52:55.644Z,101075.11
2018-05-11T07:54:32.016Z,101150.80
2018-05-11T07:56:08.476Z,101290.28
2018-05-11T07:57:45.308Z,101346.39
2018-05-11T07:59:21.677Z,101360.66
2018-05-11T08:00:59.299Z,101095.64
2018-05-11T08:02:36.774Z,101194.94
2018-05-11T08:04:13.529Z,101189.59
2018-05-11T08:05:49.921Z,101280.94
2018-05-11T08:07:27.008Z,101390.52
2018-05-11T08:09:03.893Z,101257.31
2018-05-11T08:10:40.682Z,101333.95
2018-05-11T08:12:16.993Z,101247.02
2018-05-11T08:13:54.082Z,101066.27
2018-05-11T08:15:30.972Z,101118.37
2018-05-11T08:17:07.862Z,100928.84
2018-05-11T08:18:44.214Z,100768.83
2018-05-11T08:20:20.664Z,100579.71
2018-05-11T08:21:56.987Z,100298.11
2018-05-11T08:23:34.044Z,100323.41
2018-05-11T08:25:10.407Z,100565.55
2018-05-11T08:26:46.970Z,100816.80
2018-05-11T08:28:23.137Z,100924.84
2018-05-11T08:30:05.082Z,100710.66
2018-05-11T08:31:41.893Z,100697.77
2018-05-11T08:33:18.447Z,100702.69
2018-05-11T08:34:54.739Z,100684.46
2018-05-11T08:36:31.898Z,100875.06
2018-05-11T08:38:08.451Z,100836.34
2018-05-11T08:39:44.760Z,100743.48
2018-05-11T08:41:21.987Z,100804.41
2018-05-11T08:42:58.708Z,101056.05
2018-05-11T08:44:36.212Z,101083.63
2018-05-11T08:46:12.765Z,101106.78
2018-05-11T08:47:49.054Z,100923.52
2018-05-11T08:49:25.794Z,100810.23
2018-05-11T08:51:02.150Z,100727.08
2018-05-11T08:52:39.931Z,100711.56
2018-05-11T08:54:16.256Z,100842.58
2018-05-11T08:55:53.168Z,100921.75
2018-05-11T08:57:29.565Z,101210.52
2018-05-11T08:59:06.012Z,101232.34
2018-05-11T09:00:43.507Z,101293.45
2018-05-11T09:02:20.346Z,101334.84
2018-05-11T09:03:56.722Z,101308.98
2018-05-11T09:05:33.177Z,101218.09
2018-05-11T09:07:09.575Z,101143.34
2018-05-11T09:08:45.995Z,101283.23
2018-05-11T09:10:22.386Z,100810.20
2018-05-11T09:11:59.478Z,100591.68
2018-05-11T09:13:36.657Z,100668.54
2018-05-11T09:15:15.137Z,101011.11
2018-05-11T09:16:51.565Z,101196.28
2018-05-11T09:18:27.903Z,101042.30
2018-05-11T09:20:05.055Z,101188.30
2018-05-11T09:21:42.773Z,101074.33
2018-05-11T09:23:19.171Z,100827.94
2018-05-11T09:24:55.521Z,100562.86
2018-05-11T09:26:31.931Z,100455.91
2018-05-11T09:28:08.720Z,100545.95
2018-05-11T09:29:45.127Z,100636.53
2018-05-11T09:31:21.746Z,100659.59
2018-05-11T09:32:58.215Z,100855.08
2018-05-11T09:34:34.995Z,100819.00
2018-05-11T09:37:42.302Z,100827.91
2018-05-11T09:39:18.935Z,101130.77
2018-05-11T09:40:55.549Z,101175.77
2018-05-11T09:42:31.954Z,101020.05
2018-05-11T09:44:08.371Z,100819.47
2018-05-11T09:45:45.837Z,100537.48
2018-05-11T09:47:23.253Z,100396.94
2018-05-11T09:48:59.554Z,100548.59
2018-05-11T09:50:37.327Z,100755.45
2018-05-11T09:52:13.614Z,100913.25
2018-05-11T09:53:50.329Z,101003.57
2018-05-11T09:55:26.685Z,101253.25
2018-05-11T09:57:02.909Z,101322.33
2018-05-11T09:58:39.937Z,101342.38
2018-05-11T10:00:22.278Z,101358.90
2018-05-11T10:01:59.695Z,101270.22
2018-05-11T10:03:36.952Z,101200.67
2018-05-11T10:05:13.781Z,101003.08
2018-05-11T10:06:50.115Z,100959.04
2018-05-11T10:08:26.375Z,101192.27
2018-05-11T10:10:02.688Z,101363.86
2018-05-11T10:11:39.462Z,101642.22
2018-05-11T10:13:15.782Z,101474.00
2018-05-11T10:14:53.193Z,101242.61
2018-05-11T10:16:29.998Z,101123.19
2018-05-11T10:18:07.549Z,100947.08
2018-05-11T10:19:43.986Z,100941.25
2018-05-11T10:21:20.952Z,100784.73
2018-05-11T10:22:57.438Z,100900.36
2018-05-11T10:24:34.856Z,100880.75
2018-05-11T10:26:11.339Z,101147.69
2018-05-11T10:27:47.670Z,101381.20
2018-05-11T10:29:24.306Z,101560.45
2018-05-11T10:31:02.213Z,101533.66
2018-05-11T10:32:38.731Z,101716.36
2018-05-11T10:34:15.754Z,101819.16
2018-05-11T10:35:52.833Z,101905.45
2018-05-11T10:37:31.514Z,101795.01
2018-05-11T10:39:08.529Z,101768.23
2018-05-11T10:40:45.051Z,101888.47
2018-05-11T10:42:21.391Z,102044.16
2018-05-11T10:43:58.589Z,102204.43
2018-05-11T10:45:35.334Z,102134.97
2018-05-11T10:47:11.589Z,102165.02
2018-05-11T10:48:48.366Z,102324.55
2018-05-11T10:50:26.055Z,102020.84
2018-05-11T10:52:02.402Z,101822.74
2018-05-11T10:53:39.642Z,101707.94
2018-05-11T10:55:16.026Z,101410.66
2018-05-11T10:56:53.900Z,101277.77
2018-05-11T10:58:32.143Z,101306.31
2018-05-11T11:00:09.216Z,101438.73
2018-05-11T11:01:47.625Z,101574.30
2018-05-11T11:03:23.984Z,101485.05
2018-05-11T11:05:00.237Z,101486.47
2018-05-11T11:08:16.228Z,101912.07
2018-05-11T11:09:52.566Z,102048.50
2018-05-11T11:11:29.875Z,101938.00
2018-05-11T11:13:07.110Z,101847.23
2018-05-11T11:14:46.511Z,101581.84
2018-05-11T11:16:24.175Z,101523.45
2018-05-11T11:18:00.557Z,101551.12
2018-05-11T11:21:09.136Z,101603.33
2018-05-11T11:22:45.807Z,101791.39
2018-05-11T11:24:22.154Z,102024.78
2018-05-11T11:25:58.520Z,101995.30
2018-05-11T11:27:35.340Z,101728.76
2018-05-11T11:29:11.734Z,101459.20
2018-05-11T11:30:48.410Z,101357.45
2018-05-11T11:32:24.691Z,101518.95
2018-05-11T11:34:01.419Z,101697.13
2018-05-11T11:35:38.482Z,102020.78
2018-05-11T11:37:14.711Z,102182.36
2018-05-11T11:38:51.120Z,102423.52
2018-05-11T11:40:27.996Z,102319.47
2018-05-11T11:42:04.340Z,102327.11
2018-05-11T11:43:40.577Z,102359.86
2018-05-11T11:45:19.345Z,102284.08
2018-05-11T11:46:56.687Z,102266.63
2018-05-11T11:48:32.998Z,101776.63
2018-05-11T11:50:10.055Z,101621.16
2018-05-11T11:51:46.268Z,101536.27
2018-05-11T11:53:22.962Z,101493.94
2018-05-11T11:54:59.981Z,101588.08
2018-05-11T11:56:36.237Z,101864.18
2018-05-11T11:58:12.614Z,102025.63
2018-05-11T11:59:49.412Z,101895.42
2018-05-11T12:01:27.065Z,101728.25
2018-05-11T12:03:05.204Z,101548.73
2018-05-11T12:04:41.645Z,101636.75
2018-05-11T12:06:24.872Z,101869.91
2018-05-11T12:08:01.218Z,102152.25
2018-05-11T12:09:37.530Z,102190.30
2018-05-11T12:11:14.610Z,102017.56
2018-05-11T12:12:51.161Z,101826.59
2018-05-11T12:14:27.399Z,101605.90
2018-05-11T12:16:04.489Z,101677.33
2018-05-11T12:17:40.839Z,101792.56
2018-05-11T12:19:17.657Z,101766.16
2018-05-11T12:32:55.059Z,101616.56
2018-05-11T12:34:31.343Z,101729.92
2018-05-11T12:36:08.998Z,101693.33
2018-05-11T12:37:45.817Z,101571.38
2018-05-11T12:39:22.054Z,101424.58
2018-05-11T12:40:59.166Z,101407.62
2018-05-11T12:42:35.489Z,101578.48
2018-05-11T12:44:13.094Z,101883.19
2018-05-11T12:45:49.552Z,102071.53
2018-05-11T12:47:26.600Z,102071.49
2018-05-11T12:49:02.894Z,101983.34
2018-05-11T12:50:39.567Z,101743.25
2018-05-11T12:52:15.923Z,101779.00
2018-05-11T12:53:52.280Z,101957.86
2018-05-11T12:55:29.335Z,102161.02
2018-05-11T12:57:07.549Z,102363.14
2018-05-11T12:58:43.901Z,102427.28
2018-05-11T13:00:20.247Z,102348.80
2018-05-11T13:01:57.607Z,102070.58
2018-05-11T13:03:35.155Z,101965.88
2018-05-11T13:05:12.878Z,102112.19
2018-05-11T13:06:49.251Z,102279.33
2018-05-11T13:08:25.621Z,102239.41
2018-05-11T13:10:03.299Z,102226.37
2018-05-11T13:11:39.691Z,102056.66
2018-05-11T13:13:16.018Z,101992.23
2018-05-11T13:14:52.287Z,101902.35
2018-05-11T13:16:28.709Z,101836.57
2018-05-11T13:18:05.089Z,101825.34
2018-05-11T13:19:42.198Z,101789.56
2018-05-11T13:21:19.403Z,101706.03
2018-05-11T13:22:55.718Z,101685.47
2018-05-11T13:24:32.235Z,101685.00
2018-05-11T13:26:09.167Z,101640.37
2018-05-11T13:27:45.896Z,101635.00
2018-05-11T13:29:22.319Z,101614.41
2018-05-11T13:30:58.984Z,101613.50
2018-05-11T13:32:35.250Z,101623.34
2018-05-11T13:34:12.069Z,101728.78
2018-05-11T13:35:49.565Z,101782.36
2018-05-11T13:37:26.812Z,101751.52
2018-05-11T13:39:03.058Z,101844.03
2018-05-11T13:40:39.766Z,101940.64
2018-05-11T13:42:16.071Z,101976.42
2018-05-11T13:43:52.569Z,102028.77
2018-05-11T13:45:29.713Z,101991.14
2018-05-11T13:47:06.387Z,101962.98
2018-05-11T13:48:42.780Z,101971.05
2018-05-11T13:50:19.117Z,102155.37
2018-05-11T13:51:55.412Z,102342.72
2018-05-11T13:53:32.054Z,102250.36
2018-05-11T13:55:08.582Z,102163.00
2018-05-11T13:56:45.825Z,102053.72
2018-05-11T13:58:22.631Z,101848.45
2018-05-11T14:00:00.263Z,101893.19
2018-05-11T14:01:37.077Z,101994.69
2018-05-11T14:03:13.526Z,102031.31
2018-05-11T14:04:50.007Z,101974.02
2018-05-11T14:06:26.804Z,102002.65
2018-05-11T14:08:03.249Z,101926.16
2018-05-11T14:09:39.732Z,101797.36
2018-05-11T14:11:16.077Z,101858.68
2018-05-11T14:12:52.808Z,101839.42
2018-05-11T14:14:29.067Z,101892.25
2018-05-11T14:16:06.598Z,101904.24
2018-05-11T14:17:42.905Z,101865.81
2018-05-11T14:19:20.462Z,101835.34
2018-05-11T14:20:56.865Z,101930.16
2018-05-11T14:22:33.897Z,102007.48
2018-05-11T14:24:10.887Z,101893.91
2018-05-11T14:25:48.306Z,101939.09
2018-05-11T14:27:24.684Z,101922.48
2018-05-11T14:29:00.931Z,101966.31
2018-05-11T14:30:37.477Z,102062.98
2018-05-11T14:32:14.206Z,102297.27
2018-05-11T14:33:51.388Z,102246.58
2018-05-11T14:35:27.721Z,102390.05
2018-05-11T14:37:04.101Z,102314.63
2018-05-11T14:38:42.856Z,102296.75
2018-05-11T14:40:19.301Z,102238.88
2018-05-11T14:41:55.586Z,102324.55
2018-05-11T14:43:32.043Z,102569.91
2018-05-11T14:45:10.387Z,102768.89
2018-05-11T14:46:47.222Z,102859.28
2018-05-11T14:48:23.688Z,102951.92
2018-05-11T14:50:00.217Z,103024.77
2018-05-11T14:51:36.821Z,103061.27
2018-05-11T14:53:13.291Z,102823.70
2018-05-11T14:54:49.654Z,102582.42
2018-05-11T14:56:26.589Z,102365.24
2018-05-11T14:58:04.386Z,102315.46
2018-05-11T14:59:40.777Z,102253.14
2018-05-11T15:01:17.560Z,102171.64
2018-05-11T15:02:53.825Z,102227.16
2018-05-11T15:04:30.398Z,102129.00
2018-05-11T15:06:06.915Z,102013.05
2018-05-11T15:07:43.193Z,102035.45
2018-05-11T15:09:19.761Z,102007.23
2018-05-11T15:10:56.437Z,101943.27
2018-05-11T15:12:33.623Z,101933.86
2018-05-11T15:14:11.797Z,101921.37
2018-05-11T15:15:48.338Z,101920.02
2018-05-11T15:17:25.134Z,101957.97
2018-05-11T15:19:02.460Z,101998.66
2018-05-11T15:20:45.590Z,102002.22
2018-05-11T15:22:21.931Z,102073.81
2018-05-11T15:23:59.302Z,102081.89
2018-05-11T15:25:43.421Z,102006.20
2018-05-11T15:27:19.995Z,102129.84
2018-05-11T15:28:56.353Z,102276.24
2018-05-11T15:30:33.359Z,102242.22
2018-05-11T15:32:12.422Z,102241.77
2018-05-11T15:33:56.222Z,102154.34
2018-05-11T15:35:32.579Z,102064.82
2018-05-11T15:37:09.165Z,102065.66
2018-05-11T15:38:46.363Z,102039.26
2018-05-11T15:40:23.516Z,101997.61
2018-05-11T15:41:59.920Z,101921.10
2018-05-11T15:43:36.544Z,101941.28
2018-05-11T15:45:15.532Z,101896.05
2018-05-11T15:46:52.364Z,101847.28
2018-05-11T15:48:29.043Z,101801.72
2018-05-11T15:50:06.727Z,101756.95
2018-05-11T15:51:43.503Z,101765.94
2018-05-11T15:53:21.262Z,101842.76
2018-05-11T15:54:58.235Z,101901.39
2018-05-11T15:56:36.985Z,101916.11
2018-05-11T15:58:13.951Z,101993.50
2018-05-11T15:59:50.489Z,102055.20
2018-05-11T16:01:26.994Z,102061.50
2018-05-11T16:03:03.606Z,102013.14
2018-05-11T16:04:39.932Z,102031.50
2018-05-11T16:06:17.030Z,101984.50
2018-05-11T16:07:54.278Z,102050.75
2018-05-11T16:09:30.515Z,102104.91
2018-05-11T16:11:06.867Z,102167.62
2018-05-11T16:12:43.280Z,102188.65
2018-05-11T16:14:20.460Z,102133.96
2018-05-11T16:15:58.101Z,102120.97
2018-05-11T16:17:34.756Z,102214.17
2018-05-11T16:19:12.198Z,102251.34
2018-05-11T16:20:50.805Z,102179.20
2018-05-11T16:22:27.553Z,102406.02
2018-05-11T16:24:04.882Z,102202.92
2018-05-11T16:25:42.077Z,102113.33
2018-05-11T16:27:18.471Z,102134.80
2018-05-11T16:28:55.209Z,102079.76
2018-05-11T16:30:32.471Z,101949.49
2018-05-11T16:32:09.694Z,101888.60
2018-05-11T16:33:46.819Z,101892.22
2018-05-11T16:35:23.392Z,101914.52
2018-05-11T16:37:01.070Z,101888.58
2018-05-11T16:38:37.369Z,101861.73
2018-05-11T16:40:13.705Z,101840.28
2018-05-11T16:41:50.219Z,101856.36
2018-05-11T16:43:27.315Z,101841.16
2018-05-11T16:45:03.696Z,101872.47
2018-05-11T16:46:40.603Z,101980.23
2018-05-11T16:48:17.132Z,102008.40
2018-05-11T16:49:53.527Z,102001.20
2018-05-11T16:51:29.898Z,102079.11
2018-05-11T16:53:06.635Z,102035.69
2018-05-11T16:54:43.019Z,101978.38
2018-05-11T16:56:19.322Z,101912.17
2018-05-11T16:57:56.540Z,101898.28
2018-05-11T16:59:32.834Z,101895.62
2018-05-11T17:01:09.436Z,101887.58
2018-05-11T17:02:46.532Z,101981.53
2018-05-11T17:04:23.165Z,102053.58
2018-05-11T17:05:59.452Z,102047.32
2018-05-11T17:07:36.688Z,102030.27
2018-05-11T17:09:14.153Z,102019.95
2018-05-11T17:10:50.974Z,102025.32
2018-05-11T17:12:27.517Z,101944.73
2018-05-11T17:14:03.911Z,101845.87
2018-05-11T17:15:41.554Z,101870.52
2018-05-11T17:17:20.217Z,101875.84
2018-05-11T17:18:57.615Z,101847.67
2018-05-11T17:20:33.952Z,101865.55
2018-05-11T17:22:11.186Z,101833.34
2018-05-11T17:23:47.936Z,101813.24
2018-05-11T17:25:24.273Z,101797.59
2018-05-11T17:27:00.565Z,101783.23
2018-05-11T17:28:37.177Z,101793.10
2018-05-11T17:30:14.994Z,101829.23
2018-05-11T17:31:51.696Z,101841.78
2018-05-11T17:33:28.907Z,101854.75
2018-05-11T17:35:05.643Z,101814.55
2018-05-11T17:36:42.805Z,101857.88
2018-05-11T17:38:19.150Z,101871.68
2018-05-11T17:39:55.619Z,101759.50
2018-05-11T17:41:32.434Z,101758.13
2018-05-11T17:43:09.065Z,101734.00
2018-05-11T17:44:45.562Z,101727.75
2018-05-11T17:46:22.941Z,101782.25
2018-05-11T17:48:02.611Z,101772.41
2018-05-11T17:49:38.908Z,101755.78
2018-05-11T17:51:15.172Z,101741.08
2018-05-11T17:52:51.789Z,101782.70
2018-05-11T17:54:28.165Z,101791.55
2018-05-11T17:56:05.171Z,101795.56
2018-05-11T17:57:41.591Z,101830.50
2018-05-11T17:59:18.229Z,101848.77
2018-05-11T18:00:55.166Z,101884.53
2018-05-11T18:02:31.945Z,101960.13
2018-05-11T18:04:08.534Z,102084.14
2018-05-11T18:05:45.973Z,102088.19
2018-05-11T18:07:22.399Z,101941.34
2018-05-11T18:08:59.200Z,101873.72
2018-05-11T18:10:35.546Z,101821.48
2018-05-11T18:12:12.212Z,101787.05
2018-05-11T18:13:48.628Z,101700.75
2018-05-11T18:15:26.730Z,101672.62
2018-05-11T18:17:03.086Z,101669.48
2018-05-11T18:18:39.422Z,101719.55
2018-05-11T18:20:15.940Z,101799.94
2018-05-11T18:21:52.476Z,101848.70
2018-05-11T18:23:28.932Z,101863.83
2018-05-11T18:25:05.696Z,101803.06
2018-05-11T18:26:42.094Z,101774.03
2018-05-11T18:28:18.461Z,101791.92
2018-05-11T18:29:54.829Z,101786.53
2018-05-11T18:31:31.952Z,101803.48
2018-05-11T18:33:08.489Z,101781.61
2018-05-11T18:34:45.683Z,101784.73
2018-05-11T18:36:26.437Z,101686.40
2018-05-11T18:38:04.312Z,101537.25
2018-05-11T18:39:40.900Z,101395.80
2018-05-11T18:41:18.239Z,101429.66
2018-05-11T18:42:54.745Z,101402.47
2018-05-11T18:44:32.362Z,101352.08
2018-05-11T18:46:09.194Z,101301.30
2018-05-11T18:47:46.555Z,101285.61
2018-05-11T18:49:23.820Z,101181.88
2018-05-11T18:51:01.049Z,101189.86
2018-05-11T18:52:37.559Z,101179.62
2018-05-11T18:54:14.805Z,101146.13
2018-05-11T18:55:52.155Z,101087.85
2018-05-11T18:57:28.842Z,101116.35
2018-05-11T18:59:05.292Z,101070.48
2018-05-11T19:00:42.427Z,101033.58
2018-05-11T19:02:19.164Z,101079.84
2018-05-11T19:03:55.663Z,100974.78
2018-05-11T19:05:31.987Z,100925.88
2018-05-11T19:07:08.415Z,100920.51
2018-05-11T19:08:47.093Z,100836.06
2018-05-11T19:10:23.578Z,100956.98
2018-05-11T19:12:00.008Z,100860.51
2018-05-11T19:13:36.364Z,100872.05
2018-05-11T19:15:12.928Z,100896.91